Time;durP1;ratioP1;P1;durP2;ratioP2;P2;SDS_P1;SDS_P2;PMS_P1;PMS_P2;Temp;Humidity;BMP_temperature;BMP_pressure;BME280_temperature;BME280_humidity;BME280_pressure;Samples;Min_cycle;Max_cycle;Signal;HPM_P1;HPM_P2
2021/03/21 00:01:59;;;;;;;77.65;67.50;;;20.60;40.70;;;;;;4364132;60;21620;-32
2021/03/21 00:07:00;;;;;;;75.82;66.95;;;20.60;40.80;;;;;;4353961;60;21068;-33
2021/03/21 00:12:01;;;;;;;78.50;68.20;;;20.60;40.70;;;;;;4363752;60;21618;-16
2021/03/21 00:17:02;;;;;;;76.03;66.68;;;20.60;40.70;;;;;;4377819;60;21589;-32
2021/03/21 00:22:04;;;;;;;75.05;66.55;;;20.60;40.60;;;;;;4347396;60;21100;-32
2021/03/21 00:27:05;;;;;;;73.55;64.75;;;20.60;40.60;;;;;;4343165;60;21561;-24
2021/03/21 00:32:07;;;;;;;72.93;64.57;;;20.60;40.60;;;;;;4347135;60;21071;-34
2021/03/21 00:37:08;;;;;;;70.47;61.78;;;20.60;40.60;;;;;;4346682;60;21059;-33
2021/03/21 00:42:09;;;;;;;70.80;61.35;;;20.60;40.60;;;;;;4350015;60;21546;-33
2021/03/21 00:47:10;;;;;;;72.20;62.62;;;20.60;40.60;;;;;;4363836;60;21059;-32
2021/03/21 00:52:10;;;;;;;69.25;61.65;;;20.60;40.60;;;;;;4344956;60;21559;-32
2021/03/21 00:57:11;;;;;;;70.20;61.88;;;20.60;40.60;;;;;;4341650;60;21088;-23
2021/03/21 01:02:12;;;;;;;66.55;59.13;;;20.60;40.70;;;;;;4367079;60;21723;-20
2021/03/21 01:07:13;;;;;;;66.72;57.42;;;20.60;41.20;;;;;;4346161;60;21105;-16
2021/03/21 01:12:17;;;;;;;67.68;58.45;;;20.60;40.60;;;;;;4369108;60;21075;-14
2021/03/21 01:17:20;;;;;;;65.93;57.05;;;20.60;40.60;;;;;;4353353;60;21605;-22
2021/03/21 01:22:22;;;;;;;64.45;55.58;;;20.60;40.60;;;;;;4353558;60;21063;-19
2021/03/21 01:27:23;;;;;;;61.47;54.00;;;20.60;41.20;;;;;;4337229;64;21136;-16
2021/03/21 01:32:23;;;;;;;63.97;55.90;;;20.60;40.60;;;;;;4349360;60;21584;-24
2021/03/21 01:37:24;;;;;;;61.40;53.72;;;20.60;40.50;;;;;;4347013;60;21115;-30
2021/03/21 01:42:34;;;;;;;59.00;52.50;;;20.60;40.50;;;;;;4337756;64;21594;-32
2021/03/21 01:47:39;;;;;;;61.25;53.65;;;20.60;40.50;;;;;;4357948;60;21111;-17
2021/03/21 01:52:42;;;;;;;59.22;52.83;;;20.60;40.50;;;;;;4344846;60;21150;-14
2021/03/21 01:57:43;;;;;;;60.85;52.05;;;20.60;40.50;;;;;;4353818;60;21189;-25
2021/03/21 02:02:45;;;;;;;56.47;50.38;;;20.60;40.50;;;;;;4351567;60;21127;-28
2021/03/21 02:09:26;;;;;;;55.90;49.83;;;20.50;40.40;;;;;;4336994;64;21071;-31
2021/03/21 02:16:08;;;;;;;56.25;49.45;;;20.60;40.40;;;;;;4376542;60;21119;-28
2021/03/21 02:22:30;;;;;;;55.42;49.03;;;20.60;40.40;;;;;;4352106;60;21114;-23
2021/03/21 02:28:14;;;;;;;55.78;48.83;;;20.50;40.40;;;;;;4348332;60;21577;-16
2021/03/21 02:33:39;;;;;;;52.17;46.53;;;20.50;40.40;;;;;;4359701;60;21661;-15
2021/03/21 02:38:54;;;;;;;53.08;46.45;;;20.50;40.40;;;;;;4355170;60;21067;-18
2021/03/21 02:44:01;;;;;;;50.70;44.55;;;20.50;40.40;;;;;;4339338;60;21116;-25
2021/03/21 02:49:18;;;;;;;52.00;46.20;;;20.50;40.40;;;;;;4344642;60;21058;-20
2021/03/21 02:54:26;;;;;;;49.55;44.20;;;20.50;40.30;;;;;;4343324;60;21094;-16
2021/03/21 02:59:32;;;;;;;49.20;43.80;;;20.50;40.30;;;;;;4363966;60;21063;-17
2021/03/21 03:04:39;;;;;;;49.10;43.80;;;20.50;40.30;;;;;;4350416;60;21071;-20
2021/03/21 03:09:50;;;;;;;47.65;42.38;;;20.50;40.30;;;;;;4337759;60;21637;-18
2021/03/21 03:14:51;;;;;;;47.15;41.83;;;20.50;40.90;;;;;;4361566;60;21051;-19
2021/03/21 03:20:11;;;;;;;48.22;42.97;;;20.50;40.20;;;;;;4345996;60;21593;-22
2021/03/21 03:25:34;;;;;;;48.15;42.92;;;20.50;40.20;;;;;;4337975;60;21028;-20
2021/03/21 03:30:56;;;;;;;46.97;41.80;;;20.50;40.30;;;;;;4386290;60;21096;-23
2021/03/21 03:35:57;;;;;;;46.97;40.83;;;20.50;40.20;;;;;;4350830;60;21139;-27
2021/03/21 03:41:08;;;;;;;43.95;39.15;;;20.50;40.30;;;;;;4385664;60;21534;-27
2021/03/21 03:46:47;;;;;;;43.75;39.03;;;20.50;40.20;;;;;;4337503;61;21106;-33
2021/03/21 03:54:44;;;;;;;44.30;39.53;;;20.50;40.20;;;;;;4372863;60;21040;-25
2021/03/21 04:03:12;;;;;;;43.20;37.53;;;20.50;40.60;;;;;;4354371;60;21107;-18
2021/03/21 04:10:33;;;;;;;42.35;37.75;;;20.50;40.10;;;;;;4358987;60;21797;-26
2021/03/21 04:15:43;;;;;;;41.37;36.63;;;20.50;40.10;;;;;;4382588;60;21207;-22
2021/03/21 04:21:01;;;;;;;40.25;35.97;;;20.50;40.10;;;;;;4337387;64;21100;-31
2021/03/21 04:26:08;;;;;;;40.75;36.35;;;20.50;40.10;;;;;;4357891;60;21152;-24
2021/03/21 04:31:14;;;;;;;39.80;35.50;;;20.50;40.00;;;;;;4372021;60;21087;-20
2021/03/21 04:36:28;;;;;;;40.50;36.08;;;20.50;40.00;;;;;;4346061;60;21068;-27
2021/03/21 04:44:09;;;;;;;38.58;34.38;;;20.50;40.10;;;;;;4348038;60;21051;-23
2021/03/21 04:49:11;;;;;;;36.90;33.00;;;20.50;40.00;;;;;;4370594;60;21581;-13
2021/03/21 04:54:31;;;;;;;36.80;32.92;;;20.50;40.00;;;;;;4363614;60;21554;-14
2021/03/21 04:59:35;;;;;;;36.70;32.80;;;20.50;39.90;;;;;;4337218;64;21074;-30
2021/03/21 05:05:36;;;;;;;36.97;33.00;;;20.50;39.90;;;;;;4348857;60;21072;-30
2021/03/21 05:10:49;;;;;;;36.17;32.33;;;20.50;39.80;;;;;;4353345;60;21119;-19
2021/03/21 05:17:38;;;;;;;34.83;31.10;;;20.50;39.80;;;;;;4348514;60;21036;-25
2021/03/21 05:22:48;;;;;;;34.15;30.45;;;20.50;39.80;;;;;;4353296;60;21172;-31
2021/03/21 05:29:12;;;;;;;35.28;31.50;;;20.50;39.80;;;;;;4340907;60;21055;-32
2021/03/21 05:34:14;;;;;;;33.53;29.77;;;20.50;39.70;;;;;;4368342;60;21605;-19
2021/03/21 05:42:20;;;;;;;31.90;28.50;;;20.50;39.80;;;;;;4362034;60;21116;-24
2021/03/21 05:49:18;;;;;;;33.78;30.20;;;20.40;39.60;;;;;;4342504;60;21621;-20
2021/03/21 05:56:05;;;;;;;33.63;29.70;;;20.40;39.60;;;;;;4350166;60;21679;-16
2021/03/21 06:07:26;;;;;;;31.83;28.40;;;20.40;39.60;;;;;;4344381;60;21570;-15
2021/03/21 06:19:34;;;;;;;29.95;26.75;;;20.40;39.60;;;;;;4343386;60;21091;-25
2021/03/21 06:25:12;;;;;;;30.80;26.95;;;20.40;39.50;;;;;;4345345;60;21091;-17
2021/03/21 06:30:52;;;;;;;29.35;26.23;;;20.40;39.50;;;;;;4419704;60;21160;-22
2021/03/21 06:36:08;;;;;;;29.63;26.05;;;20.40;39.50;;;;;;4353223;60;21106;-20
2021/03/21 06:41:55;;;;;;;29.95;26.85;;;20.40;39.40;;;;;;4365240;60;21103;-13
2021/03/21 06:47:43;;;;;;;29.30;26.20;;;20.40;39.40;;;;;;4358674;60;21123;-17
2021/03/21 06:53:21;;;;;;;29.08;25.88;;;20.40;39.40;;;;;;4361492;60;21068;-15
2021/03/21 07:00:11;;;;;;;29.55;26.35;;;20.40;39.30;;;;;;4347915;60;21194;-21
2021/03/21 07:07:22;;;;;;;29.58;26.42;;;20.40;39.30;;;;;;4358495;60;21144;-28
2021/03/21 07:13:31;;;;;;;28.33;25.30;;;20.40;39.30;;;;;;4388312;60;21095;-20
2021/03/21 07:20:24;;;;;;;27.73;24.77;;;20.40;39.20;;;;;;4364209;60;21553;-25
2021/03/21 07:28:50;;;;;;;28.55;25.45;;;20.40;39.20;;;;;;4354902;60;21055;-34
2021/03/21 07:38:23;;;;;;;28.42;25.35;;;20.40;39.10;;;;;;4353674;60;21183;-21
2021/03/21 07:44:28;;;;;;;29.10;25.73;;;20.40;39.10;;;;;;4354524;60;21076;-25
2021/03/21 07:50:36;;;;;;;27.75;24.63;;;20.40;39.10;;;;;;4339025;60;21168;-33
2021/03/21 07:55:59;;;;;;;29.42;25.67;;;20.40;39.10;;;;;;4336390;64;21662;-17
2021/03/21 08:01:01;;;;;;;28.17;25.08;;;20.40;39.00;;;;;;4347376;60;21047;-26
2021/03/21 08:06:10;;;;;;;29.90;26.17;;;20.40;39.60;;;;;;4366727;60;21075;-17
2021/03/21 08:11:13;;;;;;;30.37;26.92;;;20.40;39.00;;;;;;4346487;60;21078;-21
2021/03/21 08:16:28;;;;;;;30.15;26.95;;;20.40;39.00;;;;;;4382397;60;21087;-28
2021/03/21 08:21:32;;;;;;;30.00;26.05;;;20.40;39.00;;;;;;4340656;60;21116;-17
2021/03/21 08:26:33;;;;;;;29.92;26.45;;;20.40;38.90;;;;;;4363788;60;21157;-31
2021/03/21 08:31:44;;;;;;;30.27;26.90;;;20.40;38.90;;;;;;4348038;60;21159;-32
2021/03/21 08:36:45;;;;;;;31.25;27.48;;;20.40;38.90;;;;;;4347535;60;21548;-33
2021/03/21 08:41:54;;;;;;;30.30;26.95;;;20.40;38.90;;;;;;4341320;60;21059;-28
2021/03/21 08:46:55;;;;;;;32.03;27.60;;;20.40;38.90;;;;;;4387123;60;21117;-20
2021/03/21 08:51:56;;;;;;;30.60;27.15;;;20.30;38.80;;;;;;4337490;64;21060;-29
2021/03/21 08:57:04;;;;;;;31.02;27.73;;;20.40;38.90;;;;;;4350350;60;21518;-29
2021/03/21 09:02:16;;;;;;;31.58;27.90;;;20.40;39.50;;;;;;4356875;60;21229;-18
2021/03/21 09:07:27;;;;;;;32.80;28.65;;;20.40;38.70;;;;;;4337352;60;21601;-30
2021/03/21 09:12:32;;;;;;;33.78;28.83;;;20.40;38.80;;;;;;4376344;60;21071;-26
2021/03/21 09:17:33;;;;;;;34.30;29.48;;;20.40;38.70;;;;;;4349492;60;21541;-29
2021/03/21 09:22:40;;;;;;;34.85;30.92;;;20.40;38.70;;;;;;4344621;60;21638;-14
2021/03/21 09:27:44;;;;;;;38.08;31.60;;;20.30;38.70;;;;;;4391310;60;21618;-28
2021/03/21 09:32:47;;;;;;;41.15;33.92;;;20.40;38.70;;;;;;4354888;60;21127;-25
2021/03/21 09:37:51;;;;;;;43.38;35.08;;;20.30;38.60;;;;;;4358177;60;21120;-27
2021/03/21 09:42:52;;;;;;;39.22;34.45;;;20.30;38.60;;;;;;4337623;64;21095;-31
2021/03/21 09:48:01;;;;;;;42.35;33.83;;;20.30;38.60;;;;;;4342570;60;21098;-27
2021/03/21 09:56:57;;;;;;;43.42;36.42;;;20.40;38.70;;;;;;4336965;64;21565;-17
2021/03/21 10:02:14;;;;;;;47.30;39.67;;;20.30;38.60;;;;;;4348134;60;21075;-18
2021/03/21 10:07:22;;;;;;;48.95;40.17;;;20.30;38.60;;;;;;4371353;60;21059;-20
2021/03/21 10:12:23;;;;;;;50.28;39.42;;;20.40;38.60;;;;;;4345548;60;21067;-28
2021/03/21 10:17:45;;;;;;;57.03;45.08;;;20.30;38.60;;;;;;4356379;60;21156;-28
2021/03/21 10:22:52;;;;;;;50.58;43.38;;;20.40;38.60;;;;;;4353599;60;21529;-20
2021/03/21 10:27:53;;;;;;;56.27;44.83;;;20.40;38.60;;;;;;4345333;60;21056;-14
2021/03/21 10:35:53;;;;;;;55.83;44.85;;;20.40;38.60;;;;;;4355852;60;21586;-22
2021/03/21 10:40:54;;;;;;;57.95;46.05;;;20.40;38.60;;;;;;4343999;60;21063;-33
2021/03/21 10:45:56;;;;;;;59.42;48.47;;;20.40;38.70;;;;;;4357661;60;22538;-32
2021/03/21 10:51:09;;;;;;;58.97;48.75;;;20.40;38.70;;;;;;4348628;60;21597;-33
2021/03/21 10:56:19;;;;;;;64.68;49.85;;;20.30;38.60;;;;;;4393573;60;21087;-32
2021/03/21 11:01:31;;;;;;;67.85;52.15;;;20.30;38.60;;;;;;4372346;60;21565;-24
2021/03/21 11:06:38;;;;;;;67.85;51.05;;;20.40;38.70;;;;;;4347768;60;21181;-32
2021/03/21 11:11:42;;;;;;;66.87;53.33;;;20.30;38.60;;;;;;4373520;60;21063;-26
2021/03/21 11:16:58;;;;;;;71.30;56.78;;;20.30;38.60;;;;;;4350011;60;21148;-23
2021/03/21 11:22:09;;;;;;;70.93;54.85;;;20.30;38.60;;;;;;4372404;60;22052;-22
2021/03/21 11:27:22;;;;;;;70.85;56.75;;;20.30;38.60;;;;;;4359183;60;21131;-28
2021/03/21 11:32:29;;;;;;;75.82;60.78;;;20.30;38.60;;;;;;4343475;60;21131;-26
2021/03/21 11:37:39;;;;;;;74.50;59.05;;;20.30;38.60;;;;;;4343476;60;21586;-19
2021/03/21 11:42:43;;;;;;;81.12;64.03;;;20.30;38.60;;;;;;4352846;60;21114;-32
2021/03/21 11:47:54;;;;;;;81.50;63.75;;;20.30;38.70;;;;;;4337077;64;21716;-19
2021/03/21 11:52:57;;;;;;;82.37;67.32;;;20.30;38.70;;;;;;4415946;60;21573;-23
2021/03/21 11:58:35;;;;;;;89.87;68.55;;;20.40;38.80;;;;;;4336998;64;21681;-27
2021/03/21 12:03:47;;;;;;;;;;;20.30;38.70;;;;;;4370042;60;21115;-29
2021/03/21 12:08:51;;;;;;;89.75;71.25;;;20.30;38.70;;;;;;4364959;60;20122;-32
2021/03/21 12:14:17;;;;;;;91.53;70.90;;;20.30;38.70;;;;;;4337259;64;21071;-24
2021/03/21 12:19:38;;;;;;;92.12;71.53;;;20.30;38.80;;;;;;4342491;60;21071;-14
2021/03/21 12:24:40;;;;;;;95.93;74.95;;;20.30;38.70;;;;;;4348920;60;21514;-20
2021/03/21 12:29:43;;;;;;;97.97;74.35;;;20.30;38.80;;;;;;4344373;60;21585;-16
2021/03/21 12:34:54;;;;;;;95.70;75.97;;;20.30;38.80;;;;;;4352307;60;21115;-27
2021/03/21 12:40:13;;;;;;;92.95;77.03;;;20.30;38.80;;;;;;4351417;60;21063;-32
2021/03/21 12:45:53;;;;;;;95.62;76.50;;;20.30;39.40;;;;;;4348997;60;21584;-27
2021/03/21 12:50:55;;;;;;;100.40;79.20;;;20.30;38.80;;;;;;4337168;64;21160;-23
2021/03/21 12:55:59;;;;;;;98.10;78.87;;;20.30;38.80;;;;;;4360685;60;21553;-21
2021/03/21 13:00:59;;;;;;;99.82;78.60;;;20.30;38.80;;;;;;4350863;60;21134;-27
2021/03/21 13:06:04;;;;;;;105.05;79.87;;;20.30;38.80;;;;;;4365558;60;21087;-31
2021/03/21 13:11:07;;;;;;;102.70;80.20;;;20.30;38.80;;;;;;4355003;60;21116;-27
2021/03/21 13:16:13;;;;;;;104.75;82.07;;;20.30;38.80;;;;;;4351573;60;21174;-27
2021/03/21 13:21:14;;;;;;;101.75;80.85;;;20.30;38.80;;;;;;4345789;60;21529;-23
2021/03/21 13:26:15;;;;;;;105.28;84.05;;;20.30;38.80;;;;;;4351920;60;21163;-28
2021/03/21 13:31:16;;;;;;;106.78;81.63;;;20.30;38.90;;;;;;4351258;60;21190;-25
2021/03/21 13:36:18;;;;;;;110.65;85.15;;;20.30;38.90;;;;;;4352601;60;21074;-24
2021/03/21 13:41:22;;;;;;;106.68;82.40;;;20.30;38.90;;;;;;4352347;60;21501;-32
2021/03/21 13:46:23;;;;;;;109.20;86.28;;;20.30;38.90;;;;;;4339548;60;21910;-26
2021/03/21 13:51:24;;;;;;;108.78;85.60;;;20.30;39.00;;;;;;4337576;64;21071;-26
2021/03/21 13:56:24;;;;;;;111.53;84.90;;;20.30;39.00;;;;;;4404405;60;21630;-27
2021/03/21 14:01:26;;;;;;;109.68;85.72;;;20.30;39.00;;;;;;4337110;64;21078;-24
2021/03/21 14:06:26;;;;;;;111.32;88.07;;;20.30;39.00;;;;;;4337360;64;21128;-18
2021/03/21 14:11:27;;;;;;;112.03;86.90;;;20.30;39.00;;;;;;4340819;60;21051;-22
2021/03/21 14:16:28;;;;;;;111.00;87.72;;;20.30;39.00;;;;;;4376547;60;21056;-32
2021/03/21 14:21:29;;;;;;;108.82;88.40;;;20.30;39.00;;;;;;4367108;60;21091;-31
2021/03/21 14:26:31;;;;;;;113.80;88.68;;;20.30;39.10;;;;;;4349869;60;21610;-14
2021/03/21 14:31:32;;;;;;;112.88;88.18;;;20.30;39.10;;;;;;4351744;60;21177;-30
2021/03/21 14:36:32;;;;;;;112.95;88.85;;;20.30;39.00;;;;;;4388578;60;21574;-21
2021/03/21 14:41:33;;;;;;;112.15;89.95;;;20.30;39.10;;;;;;4346307;60;21055;-20
2021/03/21 14:46:34;;;;;;;115.43;89.60;;;20.30;39.00;;;;;;4346797;60;21091;-31
2021/03/21 14:51:36;;;;;;;116.50;92.43;;;20.30;39.70;;;;;;4387880;60;21039;-29
2021/03/21 14:56:37;;;;;;;110.22;89.50;;;20.30;39.10;;;;;;4344495;60;21641;-13
2021/03/21 15:01:38;;;;;;;110.65;89.28;;;20.30;39.10;;;;;;4356284;60;21083;-32
2021/03/21 15:06:39;;;;;;;113.80;91.53;;;20.30;39.10;;;;;;4347484;60;21565;-32
2021/03/21 15:11:42;;;;;;;110.32;89.07;;;20.20;39.10;;;;;;4411772;60;21067;-32
2021/03/21 15:16:44;;;;;;;111.90;89.45;;;20.30;39.10;;;;;;4361930;60;21614;-27
2021/03/21 15:21:45;;;;;;;114.35;90.47;;;20.20;39.00;;;;;;4365125;60;21116;-31
2021/03/21 15:26:46;;;;;;;109.85;88.15;;;20.30;39.10;;;;;;4386380;60;21186;-32
2021/03/21 15:31:47;;;;;;;109.87;88.70;;;20.30;39.10;;;;;;4344890;60;21537;-31
2021/03/21 15:36:48;;;;;;;113.93;89.60;;;20.30;39.10;;;;;;4344786;60;21059;-31
2021/03/21 15:41:49;;;;;;;113.40;91.30;;;20.30;39.70;;;;;;4354860;60;21068;-29
2021/03/21 15:46:50;;;;;;;113.47;90.10;;;20.30;39.10;;;;;;4345367;60;21140;-26
2021/03/21 15:51:51;;;;;;;109.75;90.05;;;20.30;39.10;;;;;;4367848;60;21606;-31
2021/03/21 15:56:52;;;;;;;109.32;89.60;;;20.20;39.10;;;;;;4341228;60;21063;-24
2021/03/21 16:01:52;;;;;;;110.65;88.60;;;20.30;39.10;;;;;;4352708;60;21124;-19
2021/03/21 16:06:53;;;;;;;109.47;88.10;;;20.20;39.00;;;;;;4372795;60;21071;-24
2021/03/21 16:11:54;;;;;;;112.60;89.05;;;20.30;39.10;;;;;;4340229;60;21067;-15
2021/03/21 16:16:55;;;;;;;112.20;89.07;;;20.30;39.10;;;;;;4398998;60;21570;-29
2021/03/21 16:21:56;;;;;;;106.03;86.78;;;20.20;39.00;;;;;;4364114;60;21138;-19
2021/03/21 16:26:57;;;;;;;106.22;85.85;;;20.20;39.00;;;;;;4348790;60;21167;-23
2021/03/21 16:31:59;;;;;;;106.90;86.05;;;20.20;39.10;;;;;;4357577;60;21557;-30
2021/03/21 16:37:00;;;;;;;108.80;88.57;;;20.20;39.10;;;;;;4337797;64;21039;-30
2021/03/21 16:42:01;;;;;;;108.97;86.18;;;20.20;39.00;;;;;;4349082;60;21075;-12
2021/03/21 16:47:03;;;;;;;104.90;86.32;;;20.20;39.10;;;;;;4369626;60;21080;-22
2021/03/21 16:52:05;;;;;;;106.65;85.62;;;20.20;39.00;;;;;;4411394;60;21113;-20
2021/03/21 16:57:08;;;;;;;105.12;85.50;;;20.20;39.00;;;;;;4359262;60;21593;-19
2021/03/21 17:02:14;;;;;;;103.20;83.90;;;20.20;39.00;;;;;;4337757;64;21190;-29
2021/03/21 17:07:15;;;;;;;102.55;83.18;;;20.20;39.00;;;;;;4369006;60;21644;-26
2021/03/21 17:12:16;;;;;;;107.18;87.65;;;20.20;39.00;;;;;;4363016;60;21131;-22
2021/03/21 17:17:17;;;;;;;99.65;80.95;;;20.20;39.00;;;;;;4357117;60;21539;-22
2021/03/21 17:22:18;;;;;;;100.65;83.43;;;20.20;39.00;;;;;;4382034;60;21052;-14
2021/03/21 17:27:20;;;;;;;103.28;84.13;;;20.20;39.00;;;;;;4339683;60;21063;-19
2021/03/21 17:32:21;;;;;;;100.25;80.00;;;20.20;39.00;;;;;;4337768;64;21059;-20
2021/03/21 17:37:22;;;;;;;103.15;80.87;;;20.20;39.10;;;;;;4345384;60;21859;-21
2021/03/21 17:42:23;;;;;;;99.93;79.40;;;20.20;39.00;;;;;;4351473;60;21151;-18
2021/03/21 17:47:24;;;;;;;98.25;79.03;;;20.20;39.00;;;;;;4339710;60;22447;-36
2021/03/21 17:52:25;;;;;;;93.20;76.53;;;20.20;39.00;;;;;;4349908;60;21618;-28
2021/03/21 17:57:25;;;;;;;97.20;79.07;;;20.20;38.90;;;;;;4352602;60;21120;-32
2021/03/21 18:02:26;;;;;;;95.32;76.70;;;20.20;39.00;;;;;;4337292;64;21095;-33
2021/03/21 18:07:27;;;;;;;92.88;73.62;;;20.20;38.90;;;;;;4340792;60;21605;-13
2021/03/21 18:12:28;;;;;;;90.50;75.32;;;20.20;39.00;;;;;;4357134;60;21598;-32
2021/03/21 18:17:29;;;;;;;92.20;75.87;;;20.20;38.90;;;;;;4337987;60;21059;-22
2021/03/21 18:22:30;;;;;;;91.12;72.80;;;20.20;38.90;;;;;;4337170;64;21573;-20
2021/03/21 18:27:31;;;;;;;94.45;75.45;;;20.20;38.90;;;;;;4350483;60;21055;-24
2021/03/21 18:32:32;;;;;;;91.85;73.55;;;20.20;39.00;;;;;;4361983;60;21513;-22
2021/03/21 18:37:33;;;;;;;93.03;75.18;;;20.20;38.90;;;;;;4340495;60;21558;-18
2021/03/21 18:42:35;;;;;;;92.32;74.30;;;20.20;38.90;;;;;;4355308;60;21055;-15
2021/03/21 18:47:37;;;;;;;91.00;73.05;;;20.20;39.50;;;;;;4347195;60;21577;-23
2021/03/21 18:52:37;;;;;;;87.68;72.85;;;20.20;38.90;;;;;;4342569;60;21714;-18
2021/03/21 18:57:38;;;;;;;89.28;71.80;;;20.20;39.00;;;;;;4343617;60;21071;-22
2021/03/21 19:02:39;;;;;;;89.87;73.07;;;20.20;38.90;;;;;;4365875;60;21494;-27
2021/03/21 19:07:40;;;;;;;88.10;70.80;;;20.20;38.90;;;;;;4337330;60;21137;-29
2021/03/21 19:12:41;;;;;;;88.93;71.55;;;20.20;38.90;;;;;;4400988;60;21044;-33
2021/03/21 19:17:44;;;;;;;87.72;71.32;;;20.20;38.90;;;;;;4368109;60;21147;-31
2021/03/21 19:22:45;;;;;;;90.00;73.53;;;20.20;38.90;;;;;;4338945;60;21051;-19
2021/03/21 19:27:49;;;;;;;90.90;72.25;;;20.20;38.90;;;;;;4341869;60;21136;-23
2021/03/21 19:32:51;;;;;;;89.65;73.15;;;20.20;38.90;;;;;;4348130;60;21039;-19
2021/03/21 19:37:51;;;;;;;88.57;73.25;;;20.20;38.80;;;;;;4338096;60;21075;-32
2021/03/21 19:42:53;;;;;;;90.70;71.65;;;20.20;38.80;;;;;;4369314;60;21072;-13
2021/03/21 19:47:55;;;;;;;90.82;71.90;;;20.20;38.80;;;;;;4336619;61;21071;-23
2021/03/21 19:52:56;;;;;;;90.72;71.18;;;20.20;38.90;;;;;;4336761;64;21632;-20
2021/03/21 19:57:57;;;;;;;88.72;72.78;;;20.20;38.90;;;;;;4372112;60;21143;-30
2021/03/21 20:03:02;;;;;;;87.75;70.55;;;20.20;38.80;;;;;;4337224;64;21585;-29
2021/03/21 20:08:03;;;;;;;92.45;73.62;;;20.20;38.80;;;;;;4407712;60;21126;-19
2021/03/21 20:13:05;;;;;;;93.43;73.37;;;20.20;38.80;;;;;;4393597;60;21596;-19
2021/03/21 20:18:08;;;;;;;89.43;70.22;;;20.20;38.80;;;;;;4349574;60;21067;-19
2021/03/21 20:23:10;;;;;;;88.32;70.80;;;20.20;38.90;;;;;;4341246;60;21389;-26
2021/03/21 20:28:14;;;;;;;89.20;70.78;;;20.20;38.90;;;;;;4351393;60;21055;-20
2021/03/21 20:33:18;;;;;;;87.45;70.45;;;20.20;38.90;;;;;;4341992;60;21055;-18
2021/03/21 20:38:19;;;;;;;86.57;69.93;;;20.20;38.90;;;;;;4337446;64;21175;-18
2021/03/21 20:43:32;;;;;;;88.18;70.45;;;20.20;38.80;;;;;;4338987;60;21052;-25
2021/03/21 20:48:34;;;;;;;85.80;69.40;;;20.20;38.80;;;;;;4378978;60;21112;-21
2021/03/21 20:53:35;;;;;;;88.37;69.37;;;20.20;38.80;;;;;;4342816;60;21618;-14
2021/03/21 20:58:36;;;;;;;85.53;67.55;;;20.20;38.80;;;;;;4344917;60;21124;-25
2021/03/21 21:03:37;;;;;;;85.82;68.10;;;20.20;38.80;;;;;;4346650;60;21654;-27
2021/03/21 21:08:38;;;;;;;83.93;67.50;;;20.20;38.80;;;;;;4353767;60;21150;-20
2021/03/21 21:13:39;;;;;;;85.68;67.32;;;20.20;38.80;;;;;;4358923;60;21519;-17
2021/03/21 21:18:40;;;;;;;87.07;67.32;;;20.20;38.80;;;;;;4359773;60;21061;-32
2021/03/21 21:23:43;;;;;;;85.30;68.03;;;20.20;38.80;;;;;;4345616;60;21546;-31
2021/03/21 21:28:45;;;;;;;82.65;66.60;;;20.20;38.80;;;;;;4363512;60;21597;-33
2021/03/21 21:33:46;;;;;;;83.60;66.57;;;20.20;38.80;;;;;;4356949;60;21618;-21
2021/03/21 21:38:47;;;;;;;83.80;66.85;;;20.20;38.80;;;;;;4341652;60;21113;-31
2021/03/21 21:43:50;;;;;;;83.72;67.10;;;20.20;38.80;;;;;;4361515;60;21526;-15
2021/03/21 21:48:54;;;;;;;85.53;67.37;;;20.20;38.80;;;;;;4349343;60;21080;-30
2021/03/21 21:53:55;;;;;;;84.13;67.72;;;20.20;38.80;;;;;;4344450;60;21143;-26
2021/03/21 21:58:55;;;;;;;83.07;67.45;;;20.20;38.90;;;;;;4336946;64;21158;-19
2021/03/21 22:03:56;;;;;;;79.00;63.75;;;20.20;38.80;;;;;;4362842;60;21560;-26
2021/03/21 22:08:57;;;;;;;82.10;65.32;;;20.20;38.80;;;;;;4389150;60;21613;-30
2021/03/21 22:13:58;;;;;;;82.32;65.00;;;20.20;38.80;;;;;;4337413;60;21124;-29
2021/03/21 22:18:59;;;;;;;80.05;64.37;;;20.20;38.80;;;;;;4345723;60;21064;-15
2021/03/21 22:24:00;;;;;;;81.12;65.78;;;20.20;38.80;;;;;;4355842;60;21064;-31
2021/03/21 22:29:03;;;;;;;81.22;65.18;;;20.20;38.80;;;;;;4343070;60;21072;-17
2021/03/21 22:34:08;;;;;;;81.28;66.18;;;20.20;38.80;;;;;;4342041;60;21602;-33
2021/03/21 22:39:13;;;;;;;82.30;63.65;;;20.10;38.80;;;;;;4374151;60;21068;-13
2021/03/21 22:44:14;;;;;;;80.82;64.85;;;20.10;38.70;;;;;;4347991;60;21673;-26
2021/03/21 22:49:19;;;;;;;80.90;65.12;;;20.20;38.80;;;;;;4356265;60;21167;-17
2021/03/21 22:54:20;;;;;;;77.37;63.45;;;20.10;38.80;;;;;;4366363;60;21164;-17
2021/03/21 22:59:21;;;;;;;80.25;64.28;;;20.20;38.80;;;;;;4347825;60;21055;-31
2021/03/21 23:04:22;;;;;;;78.03;62.60;;;20.10;38.80;;;;;;4359256;60;21075;-32
2021/03/21 23:09:23;;;;;;;80.72;63.97;;;20.20;38.80;;;;;;4337820;60;21661;-32
2021/03/21 23:14:24;;;;;;;78.80;62.40;;;20.10;38.80;;;;;;4350316;60;21087;-29
2021/03/21 23:19:28;;;;;;;79.20;62.30;;;20.10;38.80;;;;;;4339250;60;21534;-28
2021/03/21 23:24:29;;;;;;;75.32;61.13;;;20.20;38.80;;;;;;4367681;60;21631;-30
2021/03/21 23:29:31;;;;;;;81.93;63.42;;;20.20;38.80;;;;;;4338071;60;21198;-12
2021/03/21 23:34:32;;;;;;;76.53;60.12;;;20.10;38.80;;;;;;4349280;60;21075;-33
2021/03/21 23:39:33;;;;;;;72.97;59.60;;;20.10;38.80;;;;;;4366356;60;21116;-30
2021/03/21 23:44:34;;;;;;;73.93;60.45;;;20.10;39.40;;;;;;4341884;60;21526;-15
2021/03/21 23:49:35;;;;;;;78.25;59.83;;;20.10;38.80;;;;;;4360598;60;21140;-31
2021/03/21 23:54:36;;;;;;;73.75;60.72;;;20.10;38.80;;;;;;4354510;60;21099;-32
2021/03/21 23:59:39;;;;;;;77.40;61.47;;;20.20;38.80;;;;;;4345716;60;21092;-18
